createdAt,value
2023-05-18T00:01:14.545Z,102075.34
2023-05-18T00:03:42.445Z,102072.28
2023-05-18T00:06:10.102Z,102078.84
2023-05-18T00:08:37.887Z,102075.16
2023-05-18T00:11:05.879Z,102073.41
2023-05-18T00:13:32.689Z,102073.19
2023-05-18T00:16:00.135Z,102071.59
2023-05-18T00:18:27.899Z,102072.06
2023-05-18T00:21:00.500Z,102084.28
2023-05-18T00:23:30.813Z,102078.00
2023-05-18T00:25:59.126Z,102073.41
2023-05-18T00:28:26.225Z,102078.25
2023-05-18T00:30:53.789Z,102080.28
2023-05-18T00:33:20.544Z,102074.63
2023-05-18T00:35:47.196Z,102074.31
2023-05-18T00:38:15.396Z,102080.59
2023-05-18T00:40:42.437Z,102087.81
2023-05-18T00:43:08.989Z,102090.50
2023-05-18T00:45:36.019Z,102088.13
2023-05-18T00:48:02.603Z,102088.63
2023-05-18T00:50:29.181Z,102087.50
2023-05-18T00:52:56.109Z,102087.97
2023-05-18T00:55:22.662Z,102087.56
2023-05-18T00:57:49.172Z,102078.84
2023-05-18T01:00:16.118Z,102085.69
2023-05-18T01:02:45.485Z,102088.34
2023-05-18T01:05:13.259Z,102091.34
2023-05-18T01:07:42.561Z,102079.41
2023-05-18T01:10:11.008Z,102083.97
2023-05-18T01:12:57.879Z,102085.63
2023-05-18T01:15:32.902Z,102088.31
2023-05-18T01:18:21.784Z,102096.16
2023-05-18T01:21:31.468Z,102091.84
2023-05-18T01:24:21.629Z,102097.28
2023-05-18T01:26:50.525Z,102102.44
2023-05-18T01:29:17.913Z,102098.44
2023-05-18T01:31:44.612Z,102098.19
2023-05-18T01:34:11.158Z,102085.75
2023-05-18T01:36:37.621Z,102093.84
2023-05-18T01:39:04.295Z,102099.00
2023-05-18T01:41:36.289Z,102102.28
2023-05-18T01:44:09.241Z,102101.47
2023-05-18T01:46:47.882Z,102100.91
2023-05-18T01:49:25.353Z,102097.16
2023-05-18T01:51:53.978Z,102105.63
2023-05-18T01:54:22.354Z,102108.34
2023-05-18T01:56:50.817Z,102111.84
2023-05-18T01:59:17.799Z,102121.59
2023-05-18T02:01:45.220Z,102114.81
2023-05-18T02:04:12.048Z,102117.00
2023-05-18T02:06:38.560Z,102118.31
2023-05-18T02:09:05.518Z,102118.59
2023-05-18T02:11:32.131Z,102111.34
2023-05-18T02:13:58.641Z,102121.06
2023-05-18T02:16:25.190Z,102114.88
2023-05-18T02:18:53.107Z,102115.66
2023-05-18T02:21:19.636Z,102114.28
2023-05-18T02:23:46.073Z,102118.03
2023-05-18T02:26:12.536Z,102119.13
2023-05-18T02:28:39.925Z,102124.84
2023-05-18T02:31:14.076Z,102118.63
2023-05-18T02:33:40.749Z,102121.03
2023-05-18T02:36:12.358Z,102116.19
2023-05-18T02:38:43.949Z,102115.66
2023-05-18T02:41:11.187Z,102117.28
2023-05-18T02:43:37.648Z,102122.72
2023-05-18T02:46:04.702Z,102116.47
2023-05-18T02:48:31.308Z,102118.91
2023-05-18T02:50:58.753Z,102120.56
2023-05-18T02:53:26.421Z,102121.91
2023-05-18T02:55:58.514Z,102124.88
2023-05-18T02:58:25.651Z,102121.06
2023-05-18T03:00:55.201Z,102116.75
2023-05-18T03:03:23.802Z,102118.38
2023-05-18T03:05:52.855Z,102118.38
2023-05-18T03:08:20.686Z,102117.56
2023-05-18T03:10:47.114Z,102136.28
2023-05-18T03:13:13.686Z,102134.38
2023-05-18T03:15:40.573Z,102131.94
2023-05-18T03:18:07.068Z,102131.13
2023-05-18T03:20:35.051Z,102131.09
2023-05-18T03:23:01.516Z,102129.22
2023-05-18T03:25:28.004Z,102133.03
2023-05-18T03:27:54.491Z,102135.97
2023-05-18T03:30:20.952Z,102133.00
2023-05-18T03:32:48.063Z,102136.78
2023-05-18T03:35:15.130Z,102140.03
2023-05-18T03:37:42.114Z,102143.00
2023-05-18T03:40:16.170Z,102149.53
2023-05-18T03:42:43.378Z,102145.44
2023-05-18T03:45:10.593Z,102147.38
2023-05-18T03:47:38.128Z,102146.56
2023-05-18T03:50:05.410Z,102142.22
2023-05-18T03:52:34.085Z,102150.09
2023-05-18T03:55:04.110Z,102153.59
2023-05-18T03:57:31.727Z,102161.94
2023-05-18T03:59:59.030Z,102150.56
2023-05-18T04:02:26.068Z,102156.50
2023-05-18T04:04:54.057Z,102157.00
2023-05-18T04:07:24.215Z,102154.03
2023-05-18T04:09:55.577Z,102162.94
2023-05-18T04:12:22.318Z,102159.09
2023-05-18T04:14:50.004Z,102164.19
2023-05-18T04:17:23.222Z,102165.03
2023-05-18T04:19:50.508Z,102174.25
2023-05-18T04:22:17.186Z,102158.03
2023-05-18T04:24:45.684Z,102164.50
2023-05-18T04:27:12.315Z,102166.75
2023-05-18T04:29:40.113Z,102169.69
2023-05-18T04:32:07.851Z,102170.06
2023-05-18T04:34:37.970Z,102171.53
2023-05-18T04:37:07.719Z,102170.75
2023-05-18T04:39:35.088Z,102176.97
2023-05-18T04:42:04.444Z,102180.53
2023-05-18T04:44:34.075Z,102186.34
2023-05-18T04:47:01.046Z,102185.41
2023-05-18T04:49:28.164Z,102184.56
2023-05-18T04:51:56.563Z,102189.63
2023-05-18T04:54:24.341Z,102188.53
2023-05-18T04:56:51.921Z,102188.88
2023-05-18T04:59:19.054Z,102190.56
2023-05-18T05:01:46.357Z,102205.47
2023-05-18T05:04:13.271Z,102203.84
2023-05-18T05:06:39.801Z,102202.69
2023-05-18T05:09:06.291Z,102203.84
2023-05-18T05:11:32.859Z,102208.72
2023-05-18T05:13:59.379Z,102211.03
2023-05-18T05:16:26.046Z,102216.47
2023-05-18T05:18:52.685Z,102213.84
2023-05-18T05:21:19.231Z,102219.72
2023-05-18T05:23:45.767Z,102222.44
2023-05-18T05:26:12.240Z,102220.88
2023-05-18T05:28:38.768Z,102229.38
2023-05-18T05:31:05.280Z,102228.53
2023-05-18T05:33:31.943Z,102231.66
2023-05-18T05:35:58.397Z,102221.91
2023-05-18T05:38:24.932Z,102225.91
2023-05-18T05:40:51.426Z,102239.19
2023-05-18T05:43:17.896Z,102238.09
2023-05-18T05:45:44.488Z,102245.59
2023-05-18T05:48:13.489Z,102247.25
2023-05-18T05:50:40.426Z,102250.84
2023-05-18T05:53:07.020Z,102258.38
2023-05-18T05:55:33.641Z,102259.25
2023-05-18T05:58:00.254Z,102261.41
2023-05-18T06:00:28.730Z,102260.44
2023-05-18T06:02:55.274Z,102263.53
2023-05-18T06:05:21.828Z,102261.75
2023-05-18T06:07:48.312Z,102262.47
2023-05-18T06:10:14.781Z,102278.91
2023-05-18T06:12:41.578Z,102285.06
2023-05-18T06:15:08.739Z,102287.00
2023-05-18T06:17:35.269Z,102285.34
2023-05-18T06:20:01.824Z,102285.81
2023-05-18T06:22:28.272Z,102288.69
2023-05-18T06:24:54.705Z,102285.97
2023-05-18T06:27:21.257Z,102286.69
2023-05-18T06:29:47.716Z,102284.94
2023-05-18T06:32:14.341Z,102291.69
2023-05-18T06:34:41.012Z,102292.13
2023-05-18T06:37:07.517Z,102287.44
2023-05-18T06:39:33.988Z,102295.16
2023-05-18T06:42:00.428Z,102293.53
2023-05-18T06:44:26.884Z,102295.28
2023-05-18T06:46:53.371Z,102298.63
2023-05-18T06:49:19.893Z,102300.22
2023-05-18T06:51:46.359Z,102299.06
2023-05-18T06:54:14.041Z,102304.00
2023-05-18T06:56:40.494Z,102304.72
2023-05-18T06:59:06.920Z,102310.72
2023-05-18T07:01:33.768Z,102318.16
2023-05-18T07:04:00.397Z,102312.03
2023-05-18T07:06:27.006Z,102321.44
2023-05-18T07:08:53.509Z,102321.63
2023-05-18T07:11:20.070Z,102334.19
2023-05-18T07:13:46.552Z,102332.63
2023-05-18T07:16:13.066Z,102335.16
2023-05-18T07:18:39.809Z,102326.19
2023-05-18T07:21:06.302Z,102326.78
2023-05-18T07:23:32.992Z,102328.16
2023-05-18T07:25:59.772Z,102326.66
2023-05-18T07:28:26.305Z,102329.09
2023-05-18T07:30:52.842Z,102327.00
2023-05-18T07:33:19.382Z,102323.91
2023-05-18T07:35:46.016Z,102331.41
2023-05-18T07:38:12.454Z,102324.19
2023-05-18T07:40:39.009Z,102331.53
2023-05-18T07:43:05.447Z,102337.84
2023-05-18T07:45:32.428Z,102345.31
2023-05-18T07:48:00.396Z,102348.69
2023-05-18T07:50:27.087Z,102340.25
2023-05-18T07:52:53.574Z,102343.91
2023-05-18T07:55:20.017Z,102342.72
2023-05-18T07:57:46.536Z,102343.75
2023-05-18T08:00:13.572Z,102342.47
2023-05-18T08:02:40.485Z,102347.09
2023-05-18T08:05:08.414Z,102340.38
2023-05-18T08:07:34.876Z,102345.19
2023-05-18T08:10:01.424Z,102352.91
2023-05-18T08:12:29.819Z,102347.50
2023-05-18T08:14:56.974Z,102352.59
2023-05-18T08:17:23.460Z,102355.97
2023-05-18T08:19:50.751Z,102353.69
2023-05-18T08:22:17.207Z,102369.00
2023-05-18T08:24:44.894Z,102355.88
2023-05-18T08:27:11.530Z,102368.16
2023-05-18T08:29:38.086Z,102362.03
2023-05-18T08:32:08.147Z,102366.72
2023-05-18T08:34:35.012Z,102364.47
2023-05-18T08:37:01.545Z,102365.06
2023-05-18T08:39:31.636Z,102363.63
2023-05-18T08:42:03.659Z,102364.25
2023-05-18T08:44:45.396Z,102365.19
2023-05-18T08:47:14.385Z,102371.66
2023-05-18T08:49:42.534Z,102368.59
2023-05-18T08:52:11.304Z,102367.13
2023-05-18T08:54:37.873Z,102353.09
2023-05-18T08:57:11.480Z,102359.56
2023-05-18T08:59:42.029Z,102348.47
2023-05-18T09:02:08.695Z,102347.94
2023-05-18T09:04:35.702Z,102358.97
2023-05-18T09:07:04.136Z,102342.44
2023-05-18T09:09:31.884Z,102361.69
2023-05-18T09:11:59.253Z,102354.28
2023-05-18T09:14:26.704Z,102349.09
2023-05-18T09:16:53.704Z,102349.91
2023-05-18T09:19:20.395Z,102353.63
2023-05-18T09:21:47.250Z,102347.16
2023-05-18T09:24:13.948Z,102341.97
2023-05-18T09:26:40.730Z,102347.81
2023-05-18T09:29:18.570Z,102358.16
2023-05-18T09:31:46.567Z,102355.56
2023-05-18T09:34:14.229Z,102356.69
2023-05-18T09:36:42.478Z,102368.00
2023-05-18T09:39:12.611Z,102354.41
2023-05-18T09:41:39.964Z,102350.41
2023-05-18T09:44:09.524Z,102354.56
2023-05-18T09:49:05.107Z,102348.56
2023-05-18T09:51:35.583Z,102352.13
2023-05-18T09:54:05.089Z,102345.97
2023-05-18T09:56:34.804Z,102340.19
2023-05-18T09:59:08.891Z,102348.56
2023-05-18T10:01:35.654Z,102347.75
2023-05-18T10:04:06.225Z,102359.22
2023-05-18T10:06:32.819Z,102371.28
2023-05-18T10:09:02.006Z,102372.91
2023-05-18T10:11:32.127Z,102357.63
2023-05-18T10:13:58.710Z,102355.38
2023-05-18T10:16:25.765Z,102371.44
2023-05-18T10:18:54.309Z,102377.94
2023-05-18T10:21:24.531Z,102354.13
2023-05-18T10:23:52.339Z,102365.38
2023-05-18T10:26:22.793Z,102348.91
2023-05-18T10:28:51.576Z,102355.94
2023-05-18T10:31:19.750Z,102347.09
2023-05-18T10:33:46.406Z,102346.81
2023-05-18T10:36:13.318Z,102338.63
2023-05-18T10:38:43.370Z,102341.00
2023-05-18T10:41:12.310Z,102355.09
2023-05-18T10:43:41.429Z,102355.69
2023-05-18T10:46:08.853Z,102346.91
2023-05-18T10:48:39.444Z,102349.69
2023-05-18T10:51:08.050Z,102352.81
2023-05-18T10:53:36.351Z,102346.88
2023-05-18T10:56:03.043Z,102333.28
2023-05-18T10:58:31.168Z,102332.34
2023-05-18T11:01:00.211Z,102329.72
2023-05-18T11:03:28.430Z,102327.09
2023-05-18T11:06:10.506Z,102319.56
2023-05-18T11:08:51.099Z,102334.31
2023-05-18T11:11:19.556Z,102339.03
2023-05-18T11:13:50.603Z,102332.81
2023-05-18T11:16:19.897Z,102330.59
2023-05-18T11:18:51.649Z,102326.38
2023-05-18T11:21:24.019Z,102330.97
2023-05-18T11:24:17.799Z,102344.00
2023-05-18T11:26:55.705Z,102327.50
2023-05-18T11:29:35.106Z,102315.00
2023-05-18T11:32:02.700Z,102335.84
2023-05-18T11:34:46.265Z,102312.78
2023-05-18T11:37:17.438Z,102324.00
2023-05-18T11:40:00.056Z,102327.41
2023-05-18T11:42:35.200Z,102314.38
2023-05-18T11:45:13.004Z,102325.63
2023-05-18T11:47:42.977Z,102306.66
2023-05-18T11:50:12.083Z,102306.16
2023-05-18T11:52:49.708Z,102319.09
2023-05-18T11:55:19.181Z,102311.34
2023-05-18T11:57:50.099Z,102309.53
2023-05-18T12:00:17.251Z,102316.47
2023-05-18T12:02:46.458Z,102312.69
2023-05-18T12:05:14.369Z,102314.34
2023-05-18T12:07:41.743Z,102332.66
2023-05-18T12:10:10.376Z,102319.84
2023-05-18T12:12:37.521Z,102320.16
2023-05-18T12:15:06.219Z,102328.75
2023-05-18T12:17:42.644Z,102315.97
2023-05-18T12:20:14.421Z,102324.81
2023-05-18T12:22:42.903Z,102311.63
2023-05-18T12:25:09.862Z,102324.59
2023-05-18T12:27:41.068Z,102322.38
2023-05-18T12:30:12.267Z,102315.72
2023-05-18T12:32:39.099Z,102320.16
2023-05-18T12:35:08.872Z,102324.81
2023-05-18T12:37:46.099Z,102321.94
2023-05-18T12:40:15.161Z,102327.50
2023-05-18T12:43:01.221Z,102326.94
2023-05-18T12:45:31.897Z,102322.47
2023-05-18T12:48:06.196Z,102317.41
2023-05-18T12:50:33.147Z,102318.31
2023-05-18T12:53:01.605Z,102313.34
2023-05-18T12:55:30.734Z,102300.75
2023-05-18T12:58:02.312Z,102298.50
2023-05-18T13:00:36.333Z,102307.66
2023-05-18T13:03:07.440Z,102305.63
2023-05-18T13:05:34.245Z,102302.03
2023-05-18T13:08:01.020Z,102299.66
2023-05-18T13:10:31.249Z,102298.22
2023-05-18T13:13:03.133Z,102295.22
2023-05-18T13:15:37.232Z,102295.19
2023-05-18T13:18:07.010Z,102284.97
2023-05-18T13:20:50.922Z,102278.97
2023-05-18T13:23:19.173Z,102295.22
2023-05-18T13:25:48.709Z,102284.03
2023-05-18T13:28:17.988Z,102277.47
2023-05-18T13:30:45.635Z,102280.53
2023-05-18T13:33:12.323Z,102282.16
2023-05-18T13:35:41.841Z,102284.47
2023-05-18T13:38:13.209Z,102283.13
2023-05-18T13:40:41.158Z,102270.34
2023-05-18T13:43:08.703Z,102280.59
2023-05-18T13:45:36.294Z,102271.41
2023-05-18T13:48:09.560Z,102276.06
2023-05-18T13:50:36.694Z,102283.41
2023-05-18T13:53:03.289Z,102280.44
2023-05-18T13:55:30.010Z,102285.94
2023-05-18T13:57:56.887Z,102279.50
2023-05-18T14:00:23.434Z,102272.16
2023-05-18T14:02:50.003Z,102275.81
2023-05-18T14:05:16.601Z,102257.63
2023-05-18T14:07:44.074Z,102251.16
2023-05-18T14:10:12.316Z,102255.25
2023-05-18T14:12:39.588Z,102267.50
2023-05-18T14:15:06.635Z,102250.84
2023-05-18T14:17:34.397Z,102254.34
2023-05-18T14:20:01.227Z,102263.84
2023-05-18T14:22:27.670Z,102251.63
2023-05-18T14:24:54.258Z,102243.56
2023-05-18T14:27:20.767Z,102248.09
2023-05-18T14:29:47.914Z,102255.25
2023-05-18T14:32:14.444Z,102240.50
2023-05-18T14:34:41.085Z,102238.78
2023-05-18T14:37:07.657Z,102241.88
2023-05-18T14:39:34.442Z,102236.88
2023-05-18T14:42:01.125Z,102238.78
2023-05-18T14:44:27.572Z,102233.88
2023-05-18T14:46:54.140Z,102239.59
2023-05-18T14:49:20.727Z,102234.38
2023-05-18T14:51:47.177Z,102248.66
2023-05-18T14:54:14.119Z,102235.78
2023-05-18T14:56:40.993Z,102223.00
2023-05-18T14:59:07.510Z,102233.56
2023-05-18T15:01:34.034Z,102240.72
2023-05-18T15:04:00.683Z,102238.97
2023-05-18T15:06:28.692Z,102239.22
2023-05-18T15:08:55.166Z,102239.91
2023-05-18T15:11:22.720Z,102238.75
2023-05-18T15:13:49.812Z,102235.31
2023-05-18T15:16:19.433Z,102233.00
2023-05-18T15:18:46.718Z,102234.84
2023-05-18T15:21:13.306Z,102229.19
2023-05-18T15:23:39.802Z,102232.53
2023-05-18T15:26:08.735Z,102217.34
2023-05-18T15:28:35.655Z,102213.44
2023-05-18T15:31:02.142Z,102221.47
2023-05-18T15:33:28.660Z,102226.56
2023-05-18T15:35:55.257Z,102230.94
2023-05-18T15:38:21.709Z,102224.16
2023-05-18T15:40:48.219Z,102235.06
2023-05-18T15:43:14.670Z,102225.84
2023-05-18T15:45:41.404Z,102219.19
2023-05-18T15:48:08.073Z,102218.84
2023-05-18T15:50:34.583Z,102211.09
2023-05-18T15:53:01.050Z,102204.31
2023-05-18T15:55:28.046Z,102208.59
2023-05-18T15:57:54.493Z,102219.19
2023-05-18T16:00:23.615Z,102214.00
2023-05-18T16:02:50.225Z,102218.03
2023-05-18T16:05:16.915Z,102212.56
2023-05-18T16:07:43.720Z,102204.69
2023-05-18T16:10:10.526Z,102218.59
2023-05-18T16:12:37.028Z,102213.97
2023-05-18T16:15:03.667Z,102204.78
2023-05-18T16:17:30.261Z,102198.38
2023-05-18T16:19:56.713Z,102212.03
2023-05-18T16:22:23.167Z,102207.50
2023-05-18T16:24:49.746Z,102199.84
2023-05-18T16:27:16.242Z,102203.50
2023-05-18T16:29:42.804Z,102201.09
2023-05-18T16:32:09.310Z,102201.91
2023-05-18T16:34:35.762Z,102200.97
2023-05-18T16:37:02.354Z,102202.84
2023-05-18T16:39:28.777Z,102198.81
2023-05-18T16:41:55.408Z,102199.06
2023-05-18T16:44:21.934Z,102190.44
2023-05-18T16:46:48.449Z,102182.13
2023-05-18T16:49:14.990Z,102193.53
2023-05-18T16:51:41.621Z,102191.91
2023-05-18T16:54:08.206Z,102181.66
2023-05-18T16:56:35.771Z,102196.97
2023-05-18T16:59:03.014Z,102192.97
2023-05-18T17:01:30.803Z,102182.94
2023-05-18T17:03:57.618Z,102188.69
2023-05-18T17:06:25.406Z,102182.16
2023-05-18T17:08:57.346Z,102196.97
2023-05-18T17:11:26.136Z,102193.53
2023-05-18T17:13:52.737Z,102201.81
2023-05-18T17:16:21.498Z,102203.88
2023-05-18T17:18:48.795Z,102195.63
2023-05-18T17:21:15.910Z,102187.19
2023-05-18T17:23:42.417Z,102195.72
2023-05-18T17:26:08.973Z,102198.03
2023-05-18T17:28:35.805Z,102187.53
2023-05-18T17:31:02.390Z,102179.81
2023-05-18T17:33:28.980Z,102180.88
2023-05-18T17:35:55.738Z,102191.88
2023-05-18T17:38:22.618Z,102183.97
2023-05-18T17:40:49.243Z,102184.44
2023-05-18T17:43:15.696Z,102178.56
2023-05-18T17:45:42.184Z,102184.31
2023-05-18T17:48:08.999Z,102193.06
2023-05-18T17:50:37.614Z,102180.34
2023-05-18T17:53:04.852Z,102194.31
2023-05-18T17:55:31.699Z,102197.88
2023-05-18T17:58:00.878Z,102185.22
2023-05-18T18:00:27.412Z,102183.38
2023-05-18T18:02:55.190Z,102181.16
2023-05-18T18:05:22.217Z,102186.41
2023-05-18T18:07:48.905Z,102179.59
2023-05-18T18:10:15.495Z,102192.16
2023-05-18T18:12:41.997Z,102186.94
2023-05-18T18:15:09.063Z,102187.59
2023-05-18T18:17:35.704Z,102182.06
2023-05-18T18:20:02.501Z,102185.66
2023-05-18T18:22:28.980Z,102170.84
2023-05-18T18:24:55.554Z,102175.03
2023-05-18T18:27:22.153Z,102179.47
2023-05-18T18:29:49.302Z,102175.78
2023-05-18T18:32:15.843Z,102181.00
2023-05-18T18:34:42.554Z,102178.22
2023-05-18T18:37:09.124Z,102183.47
2023-05-18T18:39:35.743Z,102175.84
2023-05-18T18:42:02.436Z,102181.00
2023-05-18T18:44:28.885Z,102176.06
2023-05-18T18:46:55.554Z,102185.63
2023-05-18T18:49:22.164Z,102182.69
2023-05-18T18:51:48.696Z,102190.59
2023-05-18T18:54:15.228Z,102185.53
2023-05-18T18:56:43.904Z,102188.06
2023-05-18T18:59:10.514Z,102195.84
2023-05-18T19:01:37.209Z,102189.41
2023-05-18T19:04:04.342Z,102185.59
2023-05-18T19:06:32.020Z,102191.78
2023-05-18T19:08:58.511Z,102187.41
2023-05-18T19:11:25.100Z,102180.75
2023-05-18T19:13:51.656Z,102185.94
2023-05-18T19:16:18.520Z,102182.41
2023-05-18T19:18:45.350Z,102185.44
2023-05-18T19:21:11.953Z,102189.44
2023-05-18T19:23:38.435Z,102188.47
2023-05-18T19:26:05.062Z,102189.16
2023-05-18T19:28:31.646Z,102189.19
2023-05-18T19:30:58.216Z,102185.91
2023-05-18T19:33:24.696Z,102191.88
2023-05-18T19:35:52.766Z,102180.91
2023-05-18T19:38:19.472Z,102184.59
2023-05-18T19:40:46.051Z,102194.28
2023-05-18T19:43:12.524Z,102173.00
2023-05-18T19:45:39.502Z,102178.44
2023-05-18T19:48:06.220Z,102180.34
2023-05-18T19:50:32.785Z,102172.31
2023-05-18T19:52:59.265Z,102176.94
2023-05-18T19:55:25.950Z,102181.31
2023-05-18T19:57:52.376Z,102175.34
2023-05-18T20:00:18.965Z,102184.06
2023-05-18T20:02:45.581Z,102180.19
2023-05-18T20:05:13.089Z,102182.16
2023-05-18T20:07:39.697Z,102182.63
2023-05-18T20:10:06.656Z,102194.47
2023-05-18T20:12:33.168Z,102186.41
2023-05-18T20:14:59.845Z,102183.66
2023-05-18T20:17:27.077Z,102189.28
2023-05-18T20:19:53.658Z,102188.31
2023-05-18T20:22:20.334Z,102199.31
2023-05-18T20:24:46.996Z,102196.22
2023-05-18T20:27:14.529Z,102183.59
2023-05-18T20:29:41.454Z,102188.50
2023-05-18T20:32:08.003Z,102193.06
2023-05-18T20:34:34.907Z,102198.28
2023-05-18T20:37:01.724Z,102193.81
2023-05-18T20:39:28.938Z,102202.47
2023-05-18T20:41:57.624Z,102206.81
2023-05-18T20:44:27.786Z,102203.13
2023-05-18T20:46:54.318Z,102196.31
2023-05-18T20:49:26.881Z,102199.88
2023-05-18T20:51:53.403Z,102205.75
2023-05-18T20:54:21.391Z,102201.63
2023-05-18T20:56:48.526Z,102200.56
2023-05-18T20:59:16.146Z,102207.00
2023-05-18T21:01:42.926Z,102205.03
2023-05-18T21:04:12.569Z,102202.66
2023-05-18T21:06:40.835Z,102206.03
2023-05-18T21:09:08.051Z,102203.44
2023-05-18T21:11:34.933Z,102197.69
2023-05-18T21:14:01.514Z,102205.91
2023-05-18T21:16:28.031Z,102203.94
2023-05-18T21:18:54.565Z,102206.25
2023-05-18T21:21:21.941Z,102207.06
2023-05-18T21:23:48.953Z,102203.97
2023-05-18T21:26:15.572Z,102208.34
2023-05-18T21:28:42.236Z,102211.16
2023-05-18T21:31:08.696Z,102206.19
2023-05-18T21:33:35.261Z,102212.09
2023-05-18T21:36:01.756Z,102209.38
2023-05-18T21:38:28.487Z,102208.50
2023-05-18T21:40:56.384Z,102216.47
2023-05-18T21:43:23.754Z,102206.47
2023-05-18T21:45:50.520Z,102219.97
2023-05-18T21:48:17.042Z,102215.09
2023-05-18T21:50:43.543Z,102219.69
2023-05-18T21:53:10.040Z,102213.06
2023-05-18T21:55:36.658Z,102213.66
2023-05-18T21:58:03.172Z,102212.44
2023-05-18T22:00:29.890Z,102211.78
2023-05-18T22:02:56.624Z,102209.72
2023-05-18T22:05:23.134Z,102216.00
2023-05-18T22:07:49.799Z,102211.38
2023-05-18T22:10:17.924Z,102215.78
2023-05-18T22:12:44.690Z,102216.88
2023-05-18T22:15:11.525Z,102217.88
2023-05-18T22:17:39.156Z,102216.13
2023-05-18T22:20:11.072Z,102211.38
2023-05-18T22:22:38.001Z,102211.84
2023-05-18T22:25:04.708Z,102210.22
2023-05-18T22:27:31.474Z,102207.06
2023-05-18T22:29:57.944Z,102210.06
2023-05-18T22:32:24.790Z,102215.44
2023-05-18T22:34:51.871Z,102219.31
2023-05-18T22:37:18.315Z,102221.84
2023-05-18T22:39:44.750Z,102222.03
2023-05-18T22:42:11.253Z,102215.28
2023-05-18T22:44:37.699Z,102212.38
2023-05-18T22:47:04.303Z,102215.50
2023-05-18T22:49:31.048Z,102211.59
2023-05-18T22:51:57.505Z,102212.16
2023-05-18T22:54:23.953Z,102214.16
2023-05-18T22:56:50.457Z,102214.97
2023-05-18T22:59:17.033Z,102220.56
2023-05-18T23:01:43.515Z,102217.19
2023-05-18T23:04:10.069Z,102212.59
2023-05-18T23:06:36.561Z,102214.19
2023-05-18T23:09:03.103Z,102215.31
2023-05-18T23:11:30.924Z,102203.34
2023-05-18T23:14:02.478Z,102211.81
2023-05-18T23:16:29.757Z,102209.88
2023-05-18T23:19:01.626Z,102208.75
2023-05-18T23:21:28.428Z,102202.50
2023-05-18T23:23:55.591Z,102201.13
2023-05-18T23:26:22.763Z,102202.44
2023-05-18T23:28:49.615Z,102200.03
2023-05-18T23:31:16.370Z,102199.75
2023-05-18T23:33:43.210Z,102205.84
2023-05-18T23:36:11.769Z,102197.09
2023-05-18T23:38:40.950Z,102203.38
2023-05-18T23:41:08.400Z,102197.81
2023-05-18T23:43:35.355Z,102200.56
2023-05-18T23:46:02.209Z,102195.38
2023-05-18T23:48:32.214Z,102193.34
2023-05-18T23:51:01.584Z,102190.31
2023-05-18T23:53:32.692Z,102190.22
2023-05-18T23:56:00.125Z,102182.84
2023-05-18T23:58:31.655Z,102185.06
